Ewen, MI

2:34 PM EDT on October 24, 2014 (GMT -0400)
Gogebic-Iron County | Change Station
CLOSE
Current Station
Airport
Location: Ironwood,
Elevation: 1230 ft
Nearby Weather Stations

Elev 1230 ft 46.53 °N, 90.13 °W | Updated 19 minutes ago

Partly Cloudy
Partly Cloudy
63 °F
Feels Like 63 °F
N
16
Wind Variable Wind from SSW
Gusts 22 mph

Today
High -- | Low -- °F
--% Chance of Precip.
Yesterday
High -- | Low -- °F
Precip. -- in
8:27 AM 6:54 PM
New Moon, 1% visible
Pressure 29.81 in
Visibility 10.0 miles
Clouds Clear
Dew Point 46 °F
Humidity 55%
Rainfall 0.00 in
Snow Depth Not available.
UV 3 out of 12
Pollen .60 out of 12
Air Quality Not available.
Flu Activity Sporadic
METAR KIWD 241815Z AUTO 20014G19KT 10SM CLR 17/08 A2981 RMK AO1

More Conditions Fewer Conditions

Pressure 29.81 in
Visibility 10.0 miles
Clouds Clear
Dew Point 46 °F
Humidity 55%
Rainfall 0.00 in
Snow Depth Not available.
UV 3 out of 12
Pollen .60 out of 12
Air Quality Not available.
Flu Activity Sporadic
METAR KIWD 241815Z AUTO 20014G19KT 10SM CLR 17/08 A2981 RMK AO1

More Conditions Fewer Conditions

10-Day Weather Forecast

Almanac

Astronomy

Oct. 24, 2014 Rise Set
Actual Time 8:27 AM EDT 6:54 PM EDT
Civil Twilight 7:56 AM EDT 7:25 PM EDT
Nautical Twilight 7:21 AM EDT 8:01 PM EDT
Astronomical Twilight 6:46 AM EDT 8:35 PM EDT
Moon 9:08 AM EDT 7:32 PM EDT
Length of Visible Light 11h 29m
Length of Day
10h 27m
Tomorrow will be 3m 6s shorter.
New Moon, 1% of the Moon is Illuminated
Today
New Moon
Oct 30
First Quarter
Nov 6
Full
Nov 14
Last Quarter
Nov 22
New

Today's Extremes

State Highs State Lows

Community

WunderPhotos

Upload Photos

1,764,632 photos uploaded!

WunderBlogs® & News

Nearby

Snow Depth

Station Depth Elevation
No new snow has been reported.

Earthquake Activity

City Distance Mag. Time & Date
No recent earthquake activity has been reported nearby.
Minimum magnitude displayed is 2.5.

Coastal Water Temperatures

Place Temperature
No Stations Reporting

Nearby Weather Stations